createdAt,value
2018-05-25T00:00:54.499Z,18.48
2018-05-25T00:03:57.611Z,18.39
2018-05-25T00:06:59.649Z,18.39
2018-05-25T00:10:01.730Z,18.41
2018-05-25T00:13:03.806Z,18.39
2018-05-25T00:16:05.891Z,18.37
2018-05-25T00:19:07.924Z,18.41
2018-05-25T00:22:11.212Z,18.40
2018-05-25T00:25:13.302Z,18.37
2018-05-25T00:28:15.480Z,18.35
2018-05-25T00:31:17.566Z,18.34
2018-05-25T00:34:19.642Z,18.24
2018-05-25T00:37:34.660Z,18.11
2018-05-25T00:40:36.751Z,17.96
2018-05-25T00:43:39.752Z,17.95
2018-05-25T00:46:41.899Z,17.98
2018-05-25T00:49:43.970Z,17.98
2018-05-25T00:52:46.056Z,17.95
2018-05-25T00:55:48.023Z,17.99
2018-05-25T00:58:50.499Z,18.01
2018-05-25T01:01:52.592Z,18.02
2018-05-25T01:04:54.752Z,18.01
2018-05-25T01:08:04.537Z,17.99
2018-05-25T01:11:06.672Z,17.94
2018-05-25T01:14:09.835Z,17.87
2018-05-25T01:17:11.925Z,17.81
2018-05-25T01:20:14.099Z,17.75
2018-05-25T01:23:16.196Z,17.70
2018-05-25T01:26:18.383Z,17.67
2018-05-25T01:29:20.507Z,17.70
2018-05-25T01:32:22.810Z,17.71
2018-05-25T01:35:24.827Z,17.69
2018-05-25T01:38:26.952Z,17.67
2018-05-25T01:41:29.076Z,17.63
2018-05-25T01:44:31.374Z,17.60
2018-05-25T01:47:33.546Z,17.61
2018-05-25T01:50:35.719Z,17.66
2018-05-25T01:53:37.883Z,17.67
2018-05-25T01:56:40.971Z,17.69
2018-05-25T01:59:43.061Z,17.68
2018-05-25T02:02:45.188Z,17.66
2018-05-25T02:05:47.290Z,17.60
2018-05-25T02:08:49.234Z,17.62
2018-05-25T02:11:52.344Z,17.63
2018-05-25T02:14:54.416Z,17.63
2018-05-25T02:17:58.523Z,17.65
2018-05-25T02:21:00.595Z,17.66
2018-05-25T02:24:02.679Z,17.61
2018-05-25T02:27:04.849Z,17.50
2018-05-25T02:30:07.101Z,17.45
2018-05-25T02:33:10.292Z,17.39
2018-05-25T02:36:13.425Z,17.35
2018-05-25T02:39:15.473Z,17.32
2018-05-25T02:42:23.157Z,17.33
2018-05-25T02:45:25.238Z,17.30
2018-05-25T02:48:27.292Z,17.30
2018-05-25T02:51:41.552Z,17.26
2018-05-25T02:54:43.517Z,17.25
2018-05-25T02:57:45.563Z,17.20
2018-05-25T03:00:47.666Z,17.15
2018-05-25T03:03:49.719Z,17.06
2018-05-25T03:06:51.800Z,16.98
2018-05-25T03:09:53.955Z,16.92
2018-05-25T03:12:56.072Z,16.90
2018-05-25T03:15:58.094Z,16.86
2018-05-25T03:19:01.274Z,16.81
2018-05-25T03:22:05.427Z,16.74
2018-05-25T03:25:07.471Z,16.74
2018-05-25T03:28:10.572Z,16.74
2018-05-25T03:31:12.772Z,16.73
2018-05-25T03:34:14.807Z,16.72
2018-05-25T03:37:16.842Z,16.71
2018-05-25T03:40:18.947Z,16.71
2018-05-25T03:43:20.908Z,16.75
2018-05-25T03:46:23.063Z,16.74
2018-05-25T03:49:25.141Z,16.72
2018-05-25T03:52:27.210Z,16.72
2018-05-25T03:55:29.292Z,16.75
2018-05-25T03:58:40.386Z,16.80
2018-05-25T04:01:58.534Z,16.85
2018-05-25T04:05:05.082Z,16.85
2018-05-25T04:08:07.183Z,16.86
2018-05-25T04:11:09.311Z,16.86
2018-05-25T04:14:11.403Z,16.92
2018-05-25T04:17:19.308Z,16.88
2018-05-25T04:20:21.408Z,16.87
2018-05-25T04:23:23.535Z,16.84
2018-05-25T04:26:25.556Z,16.85
2018-05-25T04:29:27.674Z,16.85
2018-05-25T04:32:29.720Z,16.89
2018-05-25T04:35:31.851Z,16.90
2018-05-25T04:38:33.986Z,16.94
2018-05-25T04:41:36.003Z,16.97
2018-05-25T04:44:38.013Z,17.03
2018-05-25T04:47:40.121Z,17.10
2018-05-25T04:50:42.094Z,17.19
2018-05-25T04:53:44.928Z,17.22
2018-05-25T04:56:47.017Z,17.25
2018-05-25T04:59:50.121Z,17.32
2018-05-25T05:02:52.312Z,17.32
2018-05-25T05:05:54.439Z,17.33
2018-05-25T05:08:56.425Z,17.35
2018-05-25T05:11:58.516Z,17.38
2018-05-25T05:15:00.565Z,17.46
2018-05-25T05:18:03.679Z,17.51
2018-05-25T05:21:06.842Z,17.60
2018-05-25T05:24:08.919Z,17.66
2018-05-25T05:27:11.085Z,17.70
2018-05-25T05:30:13.288Z,17.80
2018-05-25T05:33:16.552Z,17.93
2018-05-25T05:36:18.719Z,17.99
2018-05-25T05:39:20.811Z,18.03
2018-05-25T05:42:22.980Z,18.07
2018-05-25T05:45:25.064Z,18.07
2018-05-25T05:48:27.136Z,18.08
2018-05-25T05:51:29.281Z,18.11
2018-05-25T05:54:33.425Z,18.17
2018-05-25T05:57:35.459Z,18.27
2018-05-25T06:00:37.604Z,18.28
2018-05-25T06:03:39.676Z,18.30
2018-05-25T06:06:41.740Z,18.34
2018-05-25T06:09:43.913Z,18.42
2018-05-25T06:12:46.000Z,18.49
2018-05-25T06:15:48.096Z,18.46
2018-05-25T06:18:50.272Z,18.44
2018-05-25T06:21:52.407Z,18.52
2018-05-25T06:24:54.479Z,18.55
2018-05-25T06:27:56.724Z,18.70
2018-05-25T06:30:58.904Z,18.78
2018-05-25T06:34:01.024Z,18.80
2018-05-25T06:37:07.860Z,18.91
2018-05-25T06:40:09.944Z,18.89
2018-05-25T06:43:12.190Z,18.90
2018-05-25T06:46:14.399Z,18.96
2018-05-25T06:49:17.404Z,18.98
2018-05-25T06:52:19.497Z,19.01
2018-05-25T06:55:21.560Z,19.06
2018-05-25T06:58:23.634Z,19.07
2018-05-25T07:01:25.817Z,19.13
2018-05-25T07:04:28.019Z,19.21
2018-05-25T07:07:30.083Z,19.25
2018-05-25T07:10:32.236Z,19.43
2018-05-25T07:13:34.367Z,19.46
2018-05-25T07:16:36.569Z,19.44
2018-05-25T07:19:38.604Z,19.45
2018-05-25T07:22:40.973Z,19.53
2018-05-25T07:25:43.040Z,19.66
2018-05-25T07:28:48.602Z,19.74
2018-05-25T07:31:50.817Z,19.84
2018-05-25T07:34:52.984Z,20.01
2018-05-25T07:37:55.162Z,20.05
2018-05-25T07:40:57.320Z,20.15
2018-05-25T07:43:59.357Z,20.29
2018-05-25T07:47:01.609Z,20.59
2018-05-25T07:50:03.749Z,20.61
2018-05-25T07:53:05.881Z,20.47
2018-05-25T07:56:08.061Z,20.56
2018-05-25T07:59:10.078Z,20.83
2018-05-25T08:02:12.288Z,21.04
2018-05-25T08:05:14.388Z,21.07
2018-05-25T08:08:17.480Z,21.13
2018-05-25T08:11:19.516Z,21.04
2018-05-25T08:14:21.598Z,20.91
2018-05-25T08:17:23.661Z,20.72
2018-05-25T08:20:25.873Z,20.68
2018-05-25T08:23:28.036Z,20.73
2018-05-25T08:26:30.451Z,20.82
2018-05-25T08:29:32.699Z,20.82
2018-05-25T08:32:34.886Z,20.83
2018-05-25T08:35:37.120Z,20.79
2018-05-25T08:38:39.312Z,21.13
2018-05-25T08:41:42.360Z,21.24
2018-05-25T08:44:44.525Z,21.61
2018-05-25T08:47:49.041Z,21.78
2018-05-25T08:50:51.132Z,21.91
2018-05-25T08:53:53.283Z,21.96
2018-05-25T08:56:55.378Z,21.53
2018-05-25T08:59:57.480Z,21.33
2018-05-25T09:02:59.591Z,21.60
2018-05-25T09:06:01.956Z,22.20
2018-05-25T09:09:04.908Z,22.50
2018-05-25T09:12:07.003Z,22.43
2018-05-25T09:15:09.051Z,22.41
2018-05-25T09:18:11.194Z,22.55
2018-05-25T09:21:13.325Z,22.82
2018-05-25T09:24:15.359Z,23.02
2018-05-25T09:27:18.271Z,23.29
2018-05-25T09:30:20.272Z,23.31
2018-05-25T09:33:22.262Z,23.18
2018-05-25T09:36:24.351Z,23.25
2018-05-25T09:39:26.414Z,23.43
2018-05-25T09:42:28.486Z,23.80
2018-05-25T09:45:30.451Z,24.11
2018-05-25T09:48:32.523Z,24.22
2018-05-25T09:51:34.627Z,24.09
2018-05-25T09:54:36.737Z,23.44
2018-05-25T09:57:42.050Z,23.61
2018-05-25T10:00:44.118Z,23.41
2018-05-25T10:03:47.579Z,23.21
2018-05-25T10:06:49.660Z,23.04
2018-05-25T10:09:51.734Z,22.75
2018-05-25T10:12:54.813Z,22.55
2018-05-25T10:15:57.914Z,22.61
2018-05-25T10:19:00.028Z,22.75
2018-05-25T10:22:02.169Z,23.05
2018-05-25T10:25:04.338Z,23.24
2018-05-25T10:28:06.364Z,23.50
2018-05-25T10:31:08.467Z,23.83
2018-05-25T10:34:10.622Z,24.18
2018-05-25T10:37:12.785Z,24.53
2018-05-25T10:40:14.969Z,24.54
2018-05-25T10:43:18.075Z,24.54
2018-05-25T10:46:20.143Z,24.46
2018-05-25T10:49:22.103Z,24.51
2018-05-25T10:52:24.155Z,24.54
2018-05-25T10:55:26.388Z,24.84
2018-05-25T10:58:28.519Z,24.67
2018-05-25T11:01:30.570Z,24.57
2018-05-25T11:04:32.740Z,24.51
2018-05-25T11:07:34.812Z,24.06
2018-05-25T11:10:36.870Z,23.84
2018-05-25T11:13:39.001Z,23.87
2018-05-25T11:16:41.340Z,23.98
2018-05-25T11:19:43.553Z,24.30
2018-05-25T11:22:45.810Z,24.37
2018-05-25T11:25:48.567Z,24.56
2018-05-25T11:28:50.791Z,24.60
2018-05-25T11:31:52.881Z,24.66
2018-05-25T11:34:55.040Z,24.90
2018-05-25T11:37:57.292Z,25.25
2018-05-25T11:40:59.563Z,25.37
2018-05-25T11:44:01.698Z,25.12
2018-05-25T11:47:03.784Z,24.68
2018-05-25T11:50:05.816Z,24.59
2018-05-25T11:53:07.910Z,24.66
2018-05-25T11:56:10.039Z,24.54
2018-05-25T11:59:13.129Z,24.57
2018-05-25T12:02:15.176Z,24.59
2018-05-25T12:05:18.227Z,24.47
2018-05-25T12:08:20.287Z,24.56
2018-05-25T12:11:22.393Z,24.76
2018-05-25T12:14:24.546Z,25.04
2018-05-25T12:17:26.684Z,25.40
2018-05-25T12:20:28.744Z,25.86
2018-05-25T12:23:30.910Z,25.91
2018-05-25T12:26:33.110Z,25.46
2018-05-25T12:29:35.234Z,25.17
2018-05-25T12:32:37.383Z,25.25
2018-05-25T12:35:39.385Z,25.57
2018-05-25T12:38:41.720Z,25.77
2018-05-25T12:41:43.854Z,25.95
2018-05-25T12:44:55.117Z,25.88
2018-05-25T12:47:57.242Z,26.00
2018-05-25T12:50:59.215Z,25.89
2018-05-25T12:54:01.257Z,25.96
2018-05-25T12:57:04.334Z,25.65
2018-05-25T13:00:06.435Z,25.38
2018-05-25T13:03:08.479Z,25.30
2018-05-25T13:06:10.658Z,25.20
2018-05-25T13:09:12.718Z,25.17
2018-05-25T13:12:15.096Z,25.19
2018-05-25T13:15:17.173Z,25.61
2018-05-25T13:18:19.384Z,25.97
2018-05-25T13:21:21.315Z,26.00
2018-05-25T13:24:23.486Z,26.10
2018-05-25T13:27:26.363Z,25.85
2018-05-25T13:30:29.099Z,25.80
2018-05-25T13:33:31.273Z,25.64
2018-05-25T13:36:33.811Z,25.55
2018-05-25T13:39:35.879Z,25.90
2018-05-25T13:42:37.999Z,26.11
2018-05-25T13:45:40.098Z,26.37
2018-05-25T13:48:43.154Z,26.48
2018-05-25T13:51:45.273Z,26.70
2018-05-25T13:54:47.388Z,26.46
2018-05-25T13:57:49.417Z,26.49
2018-05-25T14:00:51.527Z,26.23
2018-05-25T14:03:53.549Z,26.44
2018-05-25T14:06:56.689Z,26.63
2018-05-25T14:09:58.639Z,26.57
2018-05-25T14:13:01.799Z,26.55
2018-05-25T14:16:04.464Z,26.75
2018-05-25T14:19:06.535Z,26.92
2018-05-25T14:22:09.044Z,26.79
2018-05-25T14:25:11.207Z,26.62
2018-05-25T14:28:13.270Z,26.68
2018-05-25T14:31:15.431Z,26.77
2018-05-25T14:34:17.509Z,26.78
2018-05-25T14:37:19.698Z,26.79
2018-05-25T14:40:21.860Z,26.78
2018-05-25T14:43:23.905Z,26.89
2018-05-25T14:46:26.095Z,27.03
2018-05-25T14:49:28.253Z,27.22
2018-05-25T14:52:30.312Z,27.16
2018-05-25T14:55:32.283Z,27.12
2018-05-25T14:58:34.964Z,27.07
2018-05-25T15:01:37.047Z,26.96
2018-05-25T15:04:39.079Z,26.84
2018-05-25T15:07:41.190Z,26.85
2018-05-25T15:10:43.260Z,26.98
2018-05-25T15:13:45.337Z,26.76
2018-05-25T15:16:47.491Z,26.89
2018-05-25T15:19:49.560Z,27.09
2018-05-25T15:22:51.803Z,26.88
2018-05-25T15:25:53.906Z,26.96
2018-05-25T15:28:56.096Z,26.83
2018-05-25T15:31:58.102Z,26.98
2018-05-25T15:35:00.111Z,27.12
2018-05-25T15:38:02.193Z,27.30
2018-05-25T15:41:05.378Z,27.31
2018-05-25T15:44:07.408Z,27.21
2018-05-25T15:47:10.636Z,27.21
2018-05-25T15:50:12.819Z,27.30
2018-05-25T15:53:14.887Z,26.94
2018-05-25T15:56:16.999Z,27.26
2018-05-25T15:59:19.120Z,27.49
2018-05-25T16:02:21.229Z,27.49
2018-05-25T16:05:23.268Z,27.69
2018-05-25T16:08:25.427Z,27.54
2018-05-25T16:11:27.468Z,27.27
2018-05-25T16:14:29.558Z,27.42
2018-05-25T16:17:31.601Z,27.32
2018-05-25T16:20:33.709Z,27.34
2018-05-25T16:23:36.423Z,27.32
2018-05-25T16:26:38.452Z,27.47
2018-05-25T16:29:40.523Z,27.51
2018-05-25T16:32:42.640Z,27.30
2018-05-25T16:35:44.700Z,27.41
2018-05-25T16:38:46.859Z,27.48
2018-05-25T16:41:49.056Z,27.50
2018-05-25T16:44:51.144Z,27.39
2018-05-25T16:47:53.228Z,27.22
2018-05-25T16:50:55.346Z,27.24
2018-05-25T16:53:58.463Z,27.26
2018-05-25T16:57:00.548Z,27.22
2018-05-25T17:00:02.691Z,27.19
2018-05-25T17:03:05.542Z,27.17
2018-05-25T17:06:07.688Z,27.21
2018-05-25T17:09:09.716Z,27.17
2018-05-25T17:12:11.840Z,27.05
2018-05-25T17:15:13.887Z,27.08
2018-05-25T17:18:15.988Z,27.10
2018-05-25T17:21:18.133Z,26.95
2018-05-25T17:24:20.213Z,26.87
2018-05-25T17:27:22.317Z,26.68
2018-05-25T17:30:24.352Z,26.60
2018-05-25T17:33:26.367Z,26.56
2018-05-25T17:36:28.496Z,26.34
2018-05-25T17:39:30.523Z,26.28
2018-05-25T17:42:32.775Z,26.24
2018-05-25T17:45:35.583Z,26.22
2018-05-25T17:48:37.570Z,26.19
2018-05-25T17:51:39.636Z,26.18
2018-05-25T17:54:41.716Z,26.17
2018-05-25T17:57:43.892Z,26.09
2018-05-25T18:00:45.956Z,26.04
2018-05-25T18:03:48.023Z,25.99
2018-05-25T18:06:50.099Z,25.93
2018-05-25T18:09:52.141Z,25.93
2018-05-25T18:12:54.255Z,25.93
2018-05-25T18:15:56.410Z,25.93
2018-05-25T18:18:59.483Z,25.86
2018-05-25T18:22:01.584Z,25.81
2018-05-25T18:25:03.760Z,25.76
2018-05-25T18:28:05.788Z,25.66
2018-05-25T18:31:07.892Z,25.60
2018-05-25T18:34:09.924Z,25.58
2018-05-25T18:37:12.009Z,25.54
2018-05-25T18:40:14.069Z,25.47
2018-05-25T18:43:16.148Z,25.43
2018-05-25T18:46:18.089Z,25.35
2018-05-25T18:49:20.766Z,25.29
2018-05-25T18:52:22.855Z,25.27
2018-05-25T18:55:25.042Z,25.25
2018-05-25T18:58:27.111Z,25.21
2018-05-25T19:01:30.042Z,25.13
2018-05-25T19:04:33.256Z,25.00
2018-05-25T19:07:35.864Z,24.83
2018-05-25T19:10:38.973Z,24.63
2018-05-25T19:13:41.143Z,24.52
2018-05-25T19:16:43.212Z,24.41
2018-05-25T19:19:46.315Z,24.40
2018-05-25T19:22:48.388Z,24.32
2018-05-25T19:25:51.493Z,24.30
2018-05-25T19:28:53.511Z,24.24
2018-05-25T19:31:55.600Z,24.12
2018-05-25T19:34:57.669Z,23.99
2018-05-25T19:38:00.746Z,23.83
2018-05-25T19:41:02.916Z,23.75
2018-05-25T19:44:05.082Z,23.70
2018-05-25T19:47:07.041Z,23.64
2018-05-25T19:50:09.115Z,23.50
2018-05-25T19:53:12.228Z,23.44
2018-05-25T19:56:14.416Z,23.34
2018-05-25T19:59:16.446Z,23.20
2018-05-25T20:02:18.515Z,23.15
2018-05-25T20:05:20.658Z,23.11
2018-05-25T20:08:22.914Z,23.03
2018-05-25T20:11:24.961Z,22.93
2018-05-25T20:14:27.149Z,22.86
2018-05-25T20:17:30.601Z,22.83
2018-05-25T20:20:32.700Z,22.73
2018-05-25T20:23:34.657Z,22.66
2018-05-25T20:26:36.713Z,22.56
2018-05-25T20:29:38.955Z,22.52
2018-05-25T20:32:42.118Z,22.41
2018-05-25T20:35:44.131Z,22.32
2018-05-25T20:38:46.214Z,22.24
2018-05-25T20:41:48.264Z,22.21
2018-05-25T20:44:50.329Z,22.11
2018-05-25T20:47:52.319Z,22.06
2018-05-25T20:50:54.377Z,22.08
2018-05-25T20:53:56.479Z,22.12
2018-05-25T20:56:58.513Z,22.17
2018-05-25T21:00:01.180Z,22.21
2018-05-25T21:03:03.244Z,22.22
2018-05-25T21:06:05.784Z,22.19
2018-05-25T21:09:07.919Z,22.15
2018-05-25T21:12:10.001Z,22.15
2018-05-25T21:15:12.047Z,22.16
2018-05-25T21:18:14.108Z,22.16
2018-05-25T21:21:16.218Z,22.15
2018-05-25T21:24:21.544Z,22.12
2018-05-25T21:27:23.614Z,22.07
2018-05-25T21:30:25.677Z,22.01
2018-05-25T21:33:27.968Z,21.93
2018-05-25T21:36:29.912Z,21.95
2018-05-25T21:39:32.499Z,21.94
2018-05-25T21:42:34.586Z,21.91
2018-05-25T21:45:36.671Z,21.91
2018-05-25T21:48:38.707Z,21.90
2018-05-25T21:51:40.742Z,21.91
2018-05-25T21:54:42.775Z,21.90
2018-05-25T21:57:44.991Z,21.91
2018-05-25T22:00:47.706Z,21.88
2018-05-25T22:03:49.779Z,21.85
2018-05-25T22:06:51.959Z,21.82
2018-05-25T22:09:53.984Z,21.77
2018-05-25T22:12:56.060Z,21.73
2018-05-25T22:15:58.332Z,21.70
2018-05-25T22:19:01.636Z,21.71
2018-05-25T22:22:03.696Z,21.69
2018-05-25T22:25:05.778Z,21.63
2018-05-25T22:28:08.365Z,21.64
2018-05-25T22:31:10.408Z,21.61
2018-05-25T22:34:12.518Z,21.54
2018-05-25T22:37:14.552Z,21.51
2018-05-25T22:40:16.545Z,21.50
2018-05-25T22:43:30.319Z,21.50
2018-05-25T22:46:43.947Z,21.46
2018-05-25T22:49:57.483Z,21.42
2018-05-25T22:53:03.192Z,21.40
2018-05-25T22:56:05.132Z,21.40
2018-05-25T22:59:07.323Z,21.40
2018-05-25T23:02:09.402Z,21.37
2018-05-25T23:05:12.397Z,21.38
2018-05-25T23:08:14.471Z,21.39
2018-05-25T23:11:16.538Z,21.34
2018-05-25T23:14:18.608Z,21.34
2018-05-25T23:17:20.698Z,21.26
2018-05-25T23:20:22.715Z,21.23
2018-05-25T23:23:24.730Z,21.17
2018-05-25T23:26:27.856Z,21.17
2018-05-25T23:29:30.920Z,21.13
2018-05-25T23:32:32.949Z,21.12
2018-05-25T23:35:35.019Z,21.09
2018-05-25T23:38:37.112Z,21.08
2018-05-25T23:41:40.095Z,21.07
2018-05-25T23:44:42.159Z,21.09
2018-05-25T23:47:44.218Z,21.04
2018-05-25T23:50:46.328Z,21.00
2018-05-25T23:53:48.463Z,20.92
2018-05-25T23:56:50.517Z,20.85
2018-05-25T23:59:52.592Z,20.83
